CFG1279 EDDH-EYVI
Flight info
| Callsign | CFG1279 |
|---|---|
| Flight time | N/A |
| Altitude | 35000 |
| Route | LUGEG3B LUGEG P605 MEGAR DCT KOSEB DCT NINTA DCT ADAXA DCT VAGVO DCT OTNAV |
| Aircraft | A321/M-SDE3FGHIRWY/LB1 |
Departure
| Time | 2026-05-03 23:05 |
|---|---|
| Airport | Hamburg Helmut Schmidt Airport (EDDH) |
Arrival
| Time | N/A |
|---|---|
| Airport | Vilnius International Airport (EYVI) |
| Time | Latitude | Longitude | Altitude | Speed | Heading |
|---|---|---|---|---|---|
| 2026-05-03 22:51 | 53.62942 | 10.00288 | 48 ft | 0 kts | 122° |
| 2026-05-03 22:56 | 53.62945 | 10.00281 | 48 ft | 3 kts | 122° |
| 2026-05-03 22:57 | 53.62959 | 10.00243 | 48 ft | 4 kts | 122° |
| 2026-05-03 22:57 | 53.62973 | 10.00206 | 46 ft | 2 kts | 122° |
| 2026-05-03 22:57 | 53.62984 | 10.00174 | 46 ft | 4 kts | 102° |
| 2026-05-03 22:57 | 53.62982 | 10.00135 | 44 ft | 4 kts | 50° |
| 2026-05-03 22:58 | 53.62974 | 10.00121 | 45 ft | 0 kts | 33° |
| 2026-05-03 23:00 | 53.62993 | 10.00142 | 47 ft | 5 kts | 33° |
| 2026-05-03 23:00 | 53.63060 | 10.00213 | 46 ft | 16 kts | 27° |
| 2026-05-03 23:00 | 53.63167 | 10.00220 | 48 ft | 15 kts | 356° |
| 2026-05-03 23:01 | 53.63266 | 10.00207 | 48 ft | 14 kts | 356° |
| 2026-05-03 23:01 | 53.63357 | 10.00196 | 48 ft | 12 kts | 356° |
| 2026-05-03 23:01 | 53.63439 | 10.00187 | 48 ft | 11 kts | 356° |
| 2026-05-03 23:01 | 53.63507 | 10.00157 | 46 ft | 10 kts | 328° |
| 2026-05-03 23:02 | 53.63540 | 10.00114 | 50 ft | 0 kts | 321° |
| 2026-05-03 23:03 | 53.63565 | 10.00080 | 51 ft | 9 kts | 320° |
| 2026-05-03 23:03 | 53.63607 | 10.00018 | 53 ft | 7 kts | 311° |
| 2026-05-03 23:03 | 53.63599 | 9.99959 | 50 ft | 0 kts | 231° |
| 2026-05-03 23:04 | 53.63586 | 9.99934 | 52 ft | 13 kts | 230° |
| 2026-05-03 23:04 | 53.63362 | 9.99483 | 47 ft | 84 kts | 230° |
| 2026-05-03 23:04 | 53.62868 | 9.98482 | 45 ft | 136 kts | 230° |
| 2026-05-03 23:04 | 53.62188 | 9.97113 | 241 ft | 157 kts | 230° |
| 2026-05-03 23:05 | 53.61502 | 9.95727 | 882 ft | 153 kts | 233° |
| 2026-05-03 23:05 | 53.60818 | 9.94328 | 1429 ft | 158 kts | 234° |
| 2026-05-03 23:05 | 53.60092 | 9.92826 | 1620 ft | 178 kts | 234° |
| 2026-05-03 23:05 | 53.59265 | 9.91120 | 1883 ft | 194 kts | 234° |
| 2026-05-03 23:06 | 53.58400 | 9.89346 | 2489 ft | 198 kts | 233° |
| 2026-05-03 23:06 | 53.57530 | 9.87553 | 3238 ft | 198 kts | 236° |
| 2026-05-03 23:06 | 53.56973 | 9.85468 | 3939 ft | 198 kts | 262° |
| 2026-05-03 23:06 | 53.57120 | 9.83155 | 4626 ft | 205 kts | 289° |
| 2026-05-03 23:07 | 53.57999 | 9.81208 | 5266 ft | 219 kts | 319° |
| 2026-05-03 23:07 | 53.59440 | 9.80273 | 5904 ft | 233 kts | 345° |
| 2026-05-03 23:07 | 53.61082 | 9.79879 | 6568 ft | 240 kts | 353° |
| 2026-05-03 23:07 | 53.62736 | 9.80384 | 7165 ft | 254 kts | 18° |
| 2026-05-03 23:08 | 53.64310 | 9.82134 | 7414 ft | 283 kts | 38° |
| 2026-05-03 23:08 | 53.65831 | 9.84360 | 7719 ft | 302 kts | 38° |
| 2026-05-03 23:08 | 53.67440 | 9.86699 | 8351 ft | 308 kts | 38° |
| 2026-05-03 23:08 | 53.69076 | 9.89067 | 9087 ft | 311 kts | 38° |
| 2026-05-03 23:09 | 53.70731 | 9.91448 | 9825 ft | 314 kts | 38° |
| 2026-05-03 23:09 | 53.72312 | 9.94076 | 10250 ft | 329 kts | 46° |
| 2026-05-03 23:09 | 53.73886 | 9.97064 | 10399 ft | 352 kts | 47° |
| 2026-05-03 23:09 | 53.75545 | 10.00270 | 10626 ft | 370 kts | 48° |
| 2026-05-03 23:10 | 53.77197 | 10.03657 | 11161 ft | 378 kts | 54° |
| 2026-05-03 23:10 | 53.78483 | 10.07562 | 11767 ft | 382 kts | 66° |
| 2026-05-03 23:10 | 53.79566 | 10.11685 | 12424 ft | 385 kts | 66° |
| 2026-05-03 23:10 | 53.80669 | 10.15849 | 13078 ft | 389 kts | 66° |
| 2026-05-03 23:11 | 53.81787 | 10.20048 | 13723 ft | 393 kts | 66° |
| 2026-05-03 23:11 | 53.82903 | 10.24232 | 14258 ft | 398 kts | 66° |
| 2026-05-03 23:11 | 53.84044 | 10.28531 | 14849 ft | 401 kts | 66° |
| 2026-05-03 23:11 | 53.85189 | 10.32860 | 15425 ft | 404 kts | 66° |
| 2026-05-03 23:12 | 53.86342 | 10.37223 | 15982 ft | 407 kts | 66° |
| 2026-05-03 23:12 | 53.87505 | 10.41622 | 16566 ft | 410 kts | 67° |
| 2026-05-03 23:12 | 53.88671 | 10.46060 | 17122 ft | 414 kts | 67° |
| 2026-05-03 23:12 | 53.89845 | 10.50544 | 17673 ft | 417 kts | 67° |
| 2026-05-03 23:13 | 53.91023 | 10.55051 | 18168 ft | 421 kts | 68° |
| 2026-05-03 23:13 | 53.92200 | 10.59570 | 18596 ft | 425 kts | 68° |
| 2026-05-03 23:13 | 53.93451 | 10.64154 | 19025 ft | 430 kts | 63° |
| 2026-05-03 23:13 | 53.95087 | 10.68441 | 19459 ft | 435 kts | 52° |
| 2026-05-03 23:14 | 53.97103 | 10.72285 | 19874 ft | 438 kts | 47° |
| 2026-05-03 23:14 | 53.99204 | 10.76073 | 20300 ft | 442 kts | 47° |
| 2026-05-03 23:14 | 54.01314 | 10.79896 | 20725 ft | 446 kts | 47° |
| 2026-05-03 23:14 | 54.03440 | 10.83766 | 21154 ft | 449 kts | 47° |
| 2026-05-03 23:15 | 54.05584 | 10.87683 | 21571 ft | 453 kts | 47° |
| 2026-05-03 23:15 | 54.07708 | 10.91575 | 21960 ft | 457 kts | 47° |
| 2026-05-03 23:15 | 54.09904 | 10.95610 | 22378 ft | 460 kts | 48° |
| 2026-05-03 23:15 | 54.12091 | 10.99630 | 22777 ft | 464 kts | 48° |
| 2026-05-03 23:16 | 54.14290 | 11.03689 | 23176 ft | 467 kts | 48° |
| 2026-05-03 23:16 | 54.16470 | 11.07729 | 23532 ft | 471 kts | 48° |
| 2026-05-03 23:16 | 54.18692 | 11.11865 | 23874 ft | 474 kts | 48° |
| 2026-05-03 23:16 | 54.20918 | 11.16020 | 24228 ft | 476 kts | 49° |
| 2026-05-03 23:17 | 54.23163 | 11.20213 | 24601 ft | 478 kts | 49° |
| 2026-05-03 23:17 | 54.25412 | 11.24417 | 24944 ft | 479 kts | 48° |
| 2026-05-03 23:17 | 54.27662 | 11.28630 | 25317 ft | 481 kts | 48° |
| 2026-05-03 23:17 | 54.29921 | 11.32872 | 25673 ft | 483 kts | 48° |
| 2026-05-03 23:18 | 54.32185 | 11.37140 | 26021 ft | 485 kts | 48° |
| 2026-05-03 23:18 | 54.34457 | 11.41427 | 26365 ft | 487 kts | 48° |
| 2026-05-03 23:18 | 54.36741 | 11.45733 | 26709 ft | 489 kts | 48° |
| 2026-05-03 23:18 | 54.39004 | 11.50000 | 27036 ft | 491 kts | 48° |
| 2026-05-03 23:19 | 54.41302 | 11.54337 | 27364 ft | 493 kts | 48° |
| 2026-05-03 23:19 | 54.43615 | 11.58715 | 27688 ft | 495 kts | 48° |
| 2026-05-03 23:19 | 54.45906 | 11.63142 | 28010 ft | 496 kts | 52° |
| 2026-05-03 23:19 | 54.47903 | 11.67984 | 28301 ft | 497 kts | 61° |
| 2026-05-03 23:20 | 54.49620 | 11.73137 | 28591 ft | 498 kts | 62° |
| 2026-05-03 23:20 | 54.51342 | 11.78338 | 28894 ft | 500 kts | 62° |
| 2026-05-03 23:20 | 54.53068 | 11.83539 | 29188 ft | 502 kts | 62° |
| 2026-05-03 23:20 | 54.54807 | 11.88769 | 29448 ft | 504 kts | 62° |
| 2026-05-03 23:21 | 54.56549 | 11.94010 | 29837 ft | 503 kts | 62° |
| 2026-05-03 23:21 | 54.58277 | 11.99223 | 30255 ft | 500 kts | 62° |
| 2026-05-03 23:21 | 54.59973 | 12.04358 | 30622 ft | 499 kts | 62° |
| 2026-05-03 23:21 | 54.61686 | 12.09564 | 30975 ft | 498 kts | 62° |
| 2026-05-03 23:22 | 54.65094 | 12.19970 | 31680 ft | 497 kts | 62° |
| 2026-05-03 23:22 | 54.66795 | 12.25178 | 32005 ft | 498 kts | 62° |
| 2026-05-03 23:22 | 54.68496 | 12.30395 | 32339 ft | 497 kts | 63° |
| 2026-05-03 23:23 | 54.70190 | 12.35605 | 32682 ft | 497 kts | 63° |
| 2026-05-03 23:23 | 54.71882 | 12.40820 | 33019 ft | 497 kts | 63° |
| 2026-05-03 23:23 | 54.73573 | 12.46034 | 33362 ft | 496 kts | 63° |
| 2026-05-03 23:23 | 54.75262 | 12.51258 | 33694 ft | 496 kts | 63° |
| 2026-05-03 23:24 | 54.76943 | 12.56474 | 33997 ft | 495 kts | 63° |
| 2026-05-03 23:24 | 54.78595 | 12.61699 | 34300 ft | 493 kts | 64° |
| 2026-05-03 23:24 | 54.80163 | 12.66889 | 34591 ft | 492 kts | 65° |
| 2026-05-03 23:24 | 54.81717 | 12.72261 | 34792 ft | 492 kts | 65° |
| 2026-05-03 23:25 | 54.84665 | 12.82810 | 34855 ft | 487 kts | 66° |
| 2026-05-03 23:25 | 54.87611 | 12.93392 | 34838 ft | 487 kts | 66° |
| 2026-05-03 23:26 | 54.90603 | 13.03990 | 34835 ft | 487 kts | 65° |
| 2026-05-03 23:26 | 54.93600 | 13.14552 | 34836 ft | 487 kts | 65° |